createdAt,value
2024-02-24T00:00:36.461Z,3.68
2024-02-24T00:03:03.255Z,3.58
2024-02-24T00:05:30.116Z,3.50
2024-02-24T00:07:56.852Z,3.45
2024-02-24T00:10:23.799Z,3.43
2024-02-24T00:12:50.521Z,3.38
2024-02-24T00:15:17.229Z,3.37
2024-02-24T00:17:44.153Z,3.38
2024-02-24T00:20:12.261Z,3.34
2024-02-24T00:22:39.170Z,3.26
2024-02-24T00:25:06.428Z,3.16
2024-02-24T00:27:33.148Z,3.19
2024-02-24T00:30:00.454Z,3.18
2024-02-24T00:32:27.367Z,3.16
2024-02-24T00:34:54.074Z,3.12
2024-02-24T00:37:20.765Z,3.07
2024-02-24T00:39:47.446Z,3.06
2024-02-24T00:42:14.121Z,3.04
2024-02-24T00:44:40.837Z,2.98
2024-02-24T00:47:07.570Z,2.93
2024-02-24T00:49:34.297Z,2.90
2024-02-24T00:52:00.973Z,2.91
2024-02-24T00:54:27.679Z,2.86
2024-02-24T00:56:54.360Z,2.87
2024-02-24T00:59:21.042Z,2.87
2024-02-24T01:01:47.975Z,2.86
2024-02-24T01:04:14.788Z,2.86
2024-02-24T01:06:41.600Z,2.84
2024-02-24T01:09:08.297Z,2.83
2024-02-24T01:11:35.205Z,2.85
2024-02-24T01:14:02.216Z,2.79
2024-02-24T01:16:28.970Z,2.79
2024-02-24T01:18:55.771Z,2.74
2024-02-24T01:21:22.778Z,2.72
2024-02-24T01:23:49.665Z,2.73
2024-02-24T01:26:16.447Z,2.71
2024-02-24T01:28:43.589Z,2.62
2024-02-24T01:31:10.716Z,2.66
2024-02-24T01:33:37.577Z,2.61
2024-02-24T01:36:04.665Z,2.59
2024-02-24T01:38:31.380Z,2.59
2024-02-24T01:40:58.133Z,2.52
2024-02-24T01:43:30.458Z,2.54
2024-02-24T01:45:58.012Z,2.49
2024-02-24T01:48:24.922Z,2.42
2024-02-24T01:50:53.110Z,2.42
2024-02-24T01:53:21.554Z,2.45
2024-02-24T01:55:51.143Z,2.45
2024-02-24T01:58:22.104Z,2.43
2024-02-24T02:00:49.002Z,2.40
2024-02-24T02:03:15.637Z,2.40
2024-02-24T02:05:42.560Z,2.35
2024-02-24T02:08:09.257Z,2.27
2024-02-24T02:10:56.425Z,2.30
2024-02-24T02:13:24.203Z,2.23
2024-02-24T02:15:53.044Z,2.25
2024-02-24T02:18:20.682Z,2.23
2024-02-24T02:20:50.979Z,2.22
2024-02-24T02:23:17.625Z,2.21
2024-02-24T02:25:44.547Z,2.18
2024-02-24T02:28:11.033Z,2.21
2024-02-24T02:30:37.549Z,2.16
2024-02-24T02:33:06.013Z,2.22
2024-02-24T02:35:32.844Z,2.18
2024-02-24T02:37:59.446Z,2.16
2024-02-24T02:40:25.964Z,2.18
2024-02-24T02:42:52.492Z,2.19
2024-02-24T02:45:19.013Z,2.17
2024-02-24T02:47:45.632Z,2.15
2024-02-24T02:50:12.238Z,2.13
2024-02-24T02:52:38.796Z,2.11
2024-02-24T02:55:05.680Z,2.03
2024-02-24T02:57:32.175Z,2.08
2024-02-24T02:59:58.756Z,2.03
2024-02-24T03:02:25.388Z,2.06
2024-02-24T03:04:51.986Z,2.00
2024-02-24T03:07:18.493Z,2.03
2024-02-24T03:09:48.620Z,2.01
2024-02-24T03:12:15.872Z,1.99
2024-02-24T03:14:43.444Z,1.98
2024-02-24T03:17:10.082Z,1.99
2024-02-24T03:19:37.183Z,1.97
2024-02-24T03:22:03.811Z,1.96
2024-02-24T03:24:30.353Z,1.96
2024-02-24T03:26:56.882Z,1.95
2024-02-24T03:29:23.393Z,1.96
2024-02-24T03:31:49.912Z,1.96
2024-02-24T03:34:16.435Z,1.94
2024-02-24T03:36:43.968Z,1.94
2024-02-24T03:39:10.464Z,1.93
2024-02-24T03:41:37.178Z,1.95
2024-02-24T03:44:04.003Z,1.87
2024-02-24T03:46:30.681Z,1.91
2024-02-24T03:48:57.421Z,1.88
2024-02-24T03:51:24.234Z,1.89
2024-02-24T03:53:50.959Z,1.86
2024-02-24T03:56:17.704Z,1.90
2024-02-24T03:58:45.286Z,1.86
2024-02-24T04:01:12.448Z,1.86
2024-02-24T04:03:39.208Z,1.83
2024-02-24T04:06:06.770Z,1.86
2024-02-24T04:08:33.588Z,1.84
2024-02-24T04:11:01.155Z,1.82
2024-02-24T04:13:27.883Z,1.81
2024-02-24T04:15:54.585Z,1.79
2024-02-24T04:18:21.586Z,1.76
2024-02-24T04:20:48.700Z,1.77
2024-02-24T04:23:15.728Z,1.66
2024-02-24T04:25:42.637Z,1.76
2024-02-24T04:28:10.074Z,1.74
2024-02-24T04:30:38.805Z,1.72
2024-02-24T04:33:06.148Z,1.70
2024-02-24T04:35:33.050Z,1.65
2024-02-24T04:37:59.764Z,1.65
2024-02-24T04:40:26.851Z,1.64
2024-02-24T04:42:53.676Z,1.65
2024-02-24T04:45:20.333Z,1.63
2024-02-24T04:47:47.113Z,1.60
2024-02-24T04:50:13.912Z,1.61
2024-02-24T04:52:40.614Z,1.62
2024-02-24T04:55:07.691Z,1.56
2024-02-24T04:57:34.381Z,1.59
2024-02-24T05:00:01.146Z,1.58
2024-02-24T05:02:27.867Z,1.61
2024-02-24T05:04:54.580Z,1.59
2024-02-24T05:07:21.332Z,1.61
2024-02-24T05:09:48.030Z,1.56
2024-02-24T05:12:14.782Z,1.55
2024-02-24T05:14:41.636Z,1.56
2024-02-24T05:17:08.994Z,1.57
2024-02-24T05:19:36.006Z,1.58
2024-02-24T05:22:02.702Z,1.56
2024-02-24T05:24:29.334Z,1.57
2024-02-24T05:26:55.897Z,1.53
2024-02-24T05:29:22.487Z,1.56
2024-02-24T05:31:48.989Z,1.56
2024-02-24T05:34:15.587Z,1.55
2024-02-24T05:36:42.224Z,1.56
2024-02-24T05:39:08.955Z,1.55
2024-02-24T05:41:35.574Z,1.54
2024-02-24T05:44:02.155Z,1.55
2024-02-24T05:46:29.540Z,1.56
2024-02-24T05:48:56.105Z,1.43
2024-02-24T05:51:22.925Z,1.51
2024-02-24T05:53:49.928Z,1.49
2024-02-24T05:56:16.959Z,1.52
2024-02-24T05:58:43.719Z,1.47
2024-02-24T06:01:10.392Z,1.50
2024-02-24T06:03:37.248Z,1.51
2024-02-24T06:06:04.137Z,1.48
2024-02-24T06:08:30.851Z,1.48
2024-02-24T06:10:57.368Z,1.44
2024-02-24T06:13:23.997Z,1.47
2024-02-24T06:15:50.484Z,1.48
2024-02-24T06:18:17.180Z,1.47
2024-02-24T06:20:43.904Z,1.50
2024-02-24T06:23:10.524Z,1.52
2024-02-24T06:25:37.062Z,1.50
2024-02-24T06:28:03.819Z,1.52
2024-02-24T06:30:30.332Z,1.56
2024-02-24T06:32:57.018Z,1.58
2024-02-24T06:35:23.667Z,1.58
2024-02-24T06:37:50.192Z,1.64
2024-02-24T06:40:25.663Z,1.65
2024-02-24T06:42:56.468Z,1.65
2024-02-24T06:45:23.001Z,1.65
2024-02-24T06:47:49.628Z,1.63
2024-02-24T06:50:16.495Z,1.67
2024-02-24T06:52:43.365Z,1.71
2024-02-24T06:55:10.067Z,1.78
2024-02-24T06:57:36.575Z,1.79
2024-02-24T07:00:03.444Z,1.81
2024-02-24T07:02:30.053Z,1.83
2024-02-24T07:04:56.603Z,1.87
2024-02-24T07:07:23.237Z,1.89
2024-02-24T07:09:49.747Z,1.93
2024-02-24T07:12:16.327Z,1.96
2024-02-24T07:14:43.080Z,1.99
2024-02-24T07:17:09.859Z,2.03
2024-02-24T07:19:36.614Z,2.04
2024-02-24T07:22:03.357Z,2.09
2024-02-24T07:24:30.106Z,2.10
2024-02-24T07:26:57.395Z,2.16
2024-02-24T07:29:24.288Z,2.20
2024-02-24T07:31:51.032Z,2.21
2024-02-24T07:34:17.877Z,2.25
2024-02-24T07:36:44.656Z,2.25
2024-02-24T07:39:11.415Z,2.36
2024-02-24T07:41:42.357Z,2.39
2024-02-24T07:44:09.390Z,2.46
2024-02-24T07:46:36.173Z,2.47
2024-02-24T07:49:03.182Z,2.58
2024-02-24T07:51:30.582Z,2.60
2024-02-24T07:53:57.485Z,2.72
2024-02-24T07:56:25.414Z,2.77
2024-02-24T07:58:52.491Z,2.85
2024-02-24T08:01:19.380Z,2.91
2024-02-24T08:03:46.494Z,2.99
2024-02-24T08:06:13.234Z,3.01
2024-02-24T08:08:40.007Z,3.15
2024-02-24T08:11:07.654Z,3.24
2024-02-24T08:13:40.241Z,3.28
2024-02-24T08:16:07.698Z,3.37
2024-02-24T08:18:34.588Z,3.44
2024-02-24T08:21:07.665Z,3.50
2024-02-24T08:23:35.602Z,3.52
2024-02-24T08:26:02.698Z,3.67
2024-02-24T08:28:29.562Z,3.75
2024-02-24T08:30:56.967Z,3.84
2024-02-24T08:33:26.941Z,3.89
2024-02-24T08:35:54.570Z,3.96
2024-02-24T08:38:21.553Z,4.04
2024-02-24T08:40:48.375Z,4.12
2024-02-24T08:43:15.148Z,4.18
2024-02-24T08:45:42.910Z,4.23
2024-02-24T08:48:13.387Z,4.31
2024-02-24T08:50:41.724Z,4.36
2024-02-24T08:53:08.637Z,4.40
2024-02-24T08:55:35.397Z,4.47
2024-02-24T08:58:02.120Z,4.51
2024-02-24T09:00:28.834Z,4.57
2024-02-24T09:02:55.632Z,4.65
2024-02-24T09:05:22.483Z,4.71
2024-02-24T09:07:49.356Z,4.75
2024-02-24T09:10:16.239Z,4.78
2024-02-24T09:12:42.958Z,4.82
2024-02-24T09:15:09.936Z,4.87
2024-02-24T09:17:36.851Z,4.91
2024-02-24T09:20:04.559Z,4.97
2024-02-24T09:22:31.296Z,5.07
2024-02-24T09:24:57.778Z,5.18
2024-02-24T09:27:24.285Z,5.31
2024-02-24T09:29:50.881Z,5.45
2024-02-24T09:32:18.942Z,5.58
2024-02-24T09:34:46.039Z,5.67
2024-02-24T09:37:12.720Z,5.78
2024-02-24T09:39:41.432Z,5.90
2024-02-24T09:42:10.478Z,5.97
2024-02-24T09:44:37.685Z,6.09
2024-02-24T09:47:05.004Z,6.09
2024-02-24T09:49:32.160Z,6.15
2024-02-24T09:51:59.999Z,6.18
2024-02-24T09:54:28.686Z,6.17
2024-02-24T09:56:56.349Z,6.22
2024-02-24T09:59:24.071Z,6.20
2024-02-24T10:01:51.322Z,6.32
2024-02-24T10:04:18.946Z,6.33
2024-02-24T10:06:45.664Z,6.39
2024-02-24T10:09:13.375Z,6.43
2024-02-24T10:11:40.987Z,6.44
2024-02-24T10:14:07.980Z,6.50
2024-02-24T10:16:38.963Z,6.52
2024-02-24T10:19:06.880Z,6.56
2024-02-24T10:21:34.810Z,6.64
2024-02-24T10:24:01.944Z,6.68
2024-02-24T10:26:28.856Z,6.76
2024-02-24T10:28:55.505Z,6.80
2024-02-24T10:31:27.931Z,6.86
2024-02-24T10:33:56.047Z,7.08
2024-02-24T10:36:23.363Z,7.18
2024-02-24T10:38:56.004Z,7.19
2024-02-24T10:41:25.761Z,7.24
2024-02-24T10:44:02.557Z,7.32
2024-02-24T10:46:37.316Z,7.36
2024-02-24T10:49:05.435Z,7.49
2024-02-24T10:51:35.655Z,7.55
2024-02-24T10:54:11.308Z,7.69
2024-02-24T10:56:38.153Z,7.74
2024-02-24T10:59:12.028Z,7.75
2024-02-24T11:01:43.375Z,7.80
2024-02-24T11:04:12.490Z,7.79
2024-02-24T11:06:53.548Z,7.75
2024-02-24T11:09:27.411Z,7.74
2024-02-24T11:12:04.325Z,7.63
2024-02-24T11:14:35.975Z,7.55
2024-02-24T11:17:04.243Z,7.56
2024-02-24T11:19:45.029Z,7.73
2024-02-24T11:22:22.203Z,7.83
2024-02-24T11:25:16.344Z,7.98
2024-02-24T11:27:43.783Z,8.09
2024-02-24T11:30:39.487Z,8.27
2024-02-24T11:33:22.536Z,8.35
2024-02-24T11:35:51.193Z,8.46
2024-02-24T11:38:18.573Z,8.45
2024-02-24T11:40:47.820Z,8.46
2024-02-24T11:43:15.192Z,8.45
2024-02-24T11:45:52.549Z,8.47
2024-02-24T11:48:20.599Z,8.53
2024-02-24T11:50:48.651Z,8.49
2024-02-24T11:53:16.921Z,8.55
2024-02-24T11:55:44.507Z,8.59
2024-02-24T11:58:11.243Z,8.66
2024-02-24T12:00:38.917Z,8.75
2024-02-24T12:03:10.298Z,8.58
2024-02-24T12:05:37.029Z,8.47
2024-02-24T12:08:06.140Z,8.49
2024-02-24T12:10:39.995Z,8.56
2024-02-24T12:13:09.431Z,8.58
2024-02-24T12:15:36.685Z,8.52
2024-02-24T12:18:06.920Z,8.62
2024-02-24T12:20:41.769Z,8.57
2024-02-24T12:23:10.257Z,8.56
2024-02-24T12:25:37.855Z,8.52
2024-02-24T12:28:05.553Z,8.49
2024-02-24T12:30:37.171Z,8.42
2024-02-24T12:33:06.395Z,8.52
2024-02-24T12:35:33.684Z,8.49
2024-02-24T12:38:00.264Z,8.52
2024-02-24T12:40:29.229Z,8.54
2024-02-24T12:42:56.053Z,8.59
2024-02-24T12:45:23.131Z,8.56
2024-02-24T12:47:53.222Z,8.59
2024-02-24T12:50:21.235Z,8.59
2024-02-24T12:52:48.677Z,8.60
2024-02-24T12:55:16.504Z,8.64
2024-02-24T12:57:43.517Z,8.70
2024-02-24T13:00:11.775Z,8.67
2024-02-24T13:02:38.927Z,8.66
2024-02-24T13:05:06.695Z,8.65
2024-02-24T13:07:33.695Z,8.69
2024-02-24T13:10:01.122Z,8.79
2024-02-24T13:12:27.948Z,8.73
2024-02-24T13:14:54.575Z,8.64
2024-02-24T13:17:22.938Z,8.62
2024-02-24T13:19:52.623Z,8.60
2024-02-24T13:22:20.020Z,8.66
2024-02-24T13:24:46.795Z,8.72
2024-02-24T13:27:13.461Z,8.80
2024-02-24T13:29:40.066Z,8.90
2024-02-24T13:32:07.394Z,8.94
2024-02-24T13:34:34.124Z,8.99
2024-02-24T13:37:00.867Z,9.03
2024-02-24T13:39:27.566Z,9.01
2024-02-24T13:41:55.168Z,8.95
2024-02-24T13:44:22.333Z,8.92
2024-02-24T13:46:49.669Z,8.88
2024-02-24T13:49:19.063Z,8.82
2024-02-24T13:51:46.742Z,8.82
2024-02-24T13:54:13.588Z,8.80
2024-02-24T13:56:40.749Z,8.77
2024-02-24T13:59:07.963Z,8.87
2024-02-24T14:01:34.940Z,8.91
2024-02-24T14:04:03.321Z,8.90
2024-02-24T14:06:30.139Z,8.97
2024-02-24T14:08:57.053Z,8.96
2024-02-24T14:11:25.417Z,8.86
2024-02-24T14:13:52.290Z,8.86
2024-02-24T14:16:19.411Z,8.81
2024-02-24T14:18:46.176Z,8.69
2024-02-24T14:21:12.836Z,8.68
2024-02-24T14:23:39.804Z,8.62
2024-02-24T14:26:06.423Z,8.55
2024-02-24T14:28:33.019Z,8.49
2024-02-24T14:30:59.530Z,8.39
2024-02-24T14:33:26.362Z,8.36
2024-02-24T14:35:53.127Z,8.32
2024-02-24T14:38:19.768Z,8.31
2024-02-24T14:40:50.078Z,8.30
2024-02-24T14:43:16.978Z,8.29
2024-02-24T14:45:43.524Z,8.30
2024-02-24T14:48:10.143Z,8.29
2024-02-24T14:50:36.809Z,8.25
2024-02-24T14:53:03.571Z,8.19
2024-02-24T14:55:30.060Z,8.03
2024-02-24T14:57:56.866Z,7.86
2024-02-24T15:00:24.033Z,7.64
2024-02-24T15:03:04.320Z,7.42
2024-02-24T15:05:36.725Z,7.16
2024-02-24T15:08:03.590Z,7.07
2024-02-24T15:10:30.155Z,6.96
2024-02-24T15:12:56.671Z,6.87
2024-02-24T15:15:23.344Z,6.80
2024-02-24T15:17:53.070Z,6.77
2024-02-24T15:20:19.970Z,6.69
2024-02-24T15:22:48.290Z,6.75
2024-02-24T15:25:15.718Z,6.68
2024-02-24T15:27:42.310Z,6.70
2024-02-24T15:30:10.131Z,6.68
2024-02-24T15:32:36.725Z,6.61
2024-02-24T15:35:03.654Z,6.49
2024-02-24T15:40:18.510Z,6.36
2024-02-24T15:42:45.003Z,6.23
2024-02-24T15:45:11.522Z,6.23
2024-02-24T15:47:38.144Z,6.16
2024-02-24T15:50:05.072Z,5.98
2024-02-24T15:52:31.596Z,5.96
2024-02-24T15:54:58.138Z,5.81
2024-02-24T15:57:24.620Z,5.86
2024-02-24T15:59:51.389Z,5.74
2024-02-24T16:02:18.156Z,5.82
2024-02-24T16:04:45.974Z,5.78
2024-02-24T16:07:12.742Z,5.82
2024-02-24T16:09:39.468Z,5.96
2024-02-24T16:12:06.712Z,5.99
2024-02-24T16:14:33.527Z,6.01
2024-02-24T16:17:00.349Z,5.99
2024-02-24T16:19:27.326Z,5.92
2024-02-24T16:21:54.046Z,5.80
2024-02-24T16:24:21.038Z,5.87
2024-02-24T16:26:51.182Z,5.82
2024-02-24T16:29:18.020Z,5.66
2024-02-24T16:31:44.697Z,5.58
2024-02-24T16:34:11.726Z,5.58
2024-02-24T16:36:38.573Z,5.39
2024-02-24T16:39:05.474Z,5.44
2024-02-24T16:41:32.546Z,5.25
2024-02-24T16:43:59.249Z,5.25
2024-02-24T16:46:26.014Z,5.10
2024-02-24T16:48:53.912Z,4.99
2024-02-24T16:51:20.705Z,5.06
2024-02-24T16:53:47.496Z,5.00
2024-02-24T16:56:14.200Z,4.84
2024-02-24T16:58:41.489Z,4.90
2024-02-24T17:01:08.333Z,4.82
2024-02-24T17:03:35.081Z,4.78
2024-02-24T17:06:02.527Z,4.71
2024-02-24T17:08:29.338Z,4.61
2024-02-24T17:10:56.108Z,4.48
2024-02-24T17:13:22.902Z,4.50
2024-02-24T17:15:49.588Z,4.49
2024-02-24T17:18:18.618Z,4.38
2024-02-24T17:20:50.375Z,4.42
2024-02-24T17:23:17.145Z,4.26
2024-02-24T17:25:43.872Z,4.27
2024-02-24T17:28:10.901Z,4.25
2024-02-24T17:30:37.702Z,4.18
2024-02-24T17:33:05.177Z,4.10
2024-02-24T17:35:32.250Z,4.01
2024-02-24T17:37:59.856Z,3.99
2024-02-24T17:40:26.701Z,3.93
2024-02-24T17:42:53.389Z,3.77
2024-02-24T17:45:20.173Z,3.81
2024-02-24T17:47:46.967Z,3.80
2024-02-24T17:50:13.721Z,3.64
2024-02-24T17:52:41.755Z,3.67
2024-02-24T17:55:08.886Z,3.61
2024-02-24T17:57:35.587Z,3.40
2024-02-24T18:00:04.923Z,3.52
2024-02-24T18:02:31.650Z,3.44
2024-02-24T18:04:58.338Z,3.30
2024-02-24T18:07:26.471Z,3.31
2024-02-24T18:09:53.444Z,3.31
2024-02-24T18:12:20.271Z,3.24
2024-02-24T18:14:47.150Z,3.17
2024-02-24T18:17:13.985Z,3.27
2024-02-24T18:19:40.735Z,3.17
2024-02-24T18:22:07.477Z,3.17
2024-02-24T18:24:34.151Z,3.19
2024-02-24T18:27:02.649Z,3.17
2024-02-24T18:29:29.458Z,3.03
2024-02-24T18:31:56.161Z,2.96
2024-02-24T18:34:23.003Z,3.05
2024-02-24T18:36:49.795Z,2.83
2024-02-24T18:39:16.484Z,2.93
2024-02-24T18:41:44.036Z,2.96
2024-02-24T18:44:11.062Z,2.85
2024-02-24T18:46:37.745Z,2.86
2024-02-24T18:49:04.564Z,2.83
2024-02-24T18:51:31.346Z,2.77
2024-02-24T18:53:58.150Z,2.60
2024-02-24T18:56:26.306Z,2.53
2024-02-24T18:58:53.268Z,2.63
2024-02-24T19:01:20.023Z,2.62
2024-02-24T19:03:46.883Z,2.47
2024-02-24T19:06:14.176Z,2.55
2024-02-24T19:08:40.928Z,2.49
2024-02-24T19:11:07.676Z,2.37
2024-02-24T19:13:34.420Z,2.43
2024-02-24T19:16:01.137Z,2.40
2024-02-24T19:18:28.005Z,2.44
2024-02-24T19:20:54.885Z,2.39
2024-02-24T19:23:22.044Z,2.31
2024-02-24T19:25:49.350Z,2.29
2024-02-24T19:28:17.111Z,2.31
2024-02-24T19:30:43.847Z,2.11
2024-02-24T19:33:10.794Z,2.28
2024-02-24T19:35:40.233Z,2.31
2024-02-24T19:38:08.219Z,2.27
2024-02-24T19:40:35.040Z,2.19
2024-02-24T19:43:01.720Z,2.39
2024-02-24T19:45:28.454Z,2.33
2024-02-24T19:47:55.247Z,2.48
2024-02-24T19:50:22.113Z,2.52
2024-02-24T19:52:48.887Z,2.42
2024-02-24T19:55:16.153Z,2.57
2024-02-24T19:57:43.287Z,2.52
2024-02-24T20:00:10.643Z,2.65
2024-02-24T20:02:38.042Z,2.57
2024-02-24T20:05:05.231Z,2.72
2024-02-24T20:07:32.082Z,2.58
2024-02-24T20:09:59.004Z,2.77
2024-02-24T20:12:25.752Z,2.89
2024-02-24T20:14:52.742Z,2.96
2024-02-24T20:17:19.607Z,3.05
2024-02-24T20:19:47.126Z,3.22
2024-02-24T20:22:14.567Z,3.27
2024-02-24T20:24:41.414Z,3.18
2024-02-24T20:27:08.511Z,3.30
2024-02-24T20:29:35.267Z,3.31
2024-02-24T20:32:02.030Z,3.28
2024-02-24T20:34:28.880Z,3.28
2024-02-24T20:36:55.670Z,3.22
2024-02-24T20:39:22.357Z,3.39
2024-02-24T20:41:49.106Z,3.36
2024-02-24T20:44:18.334Z,3.48
2024-02-24T20:46:45.866Z,3.48
2024-02-24T20:49:13.981Z,3.20
2024-02-24T20:51:40.831Z,3.50
2024-02-24T20:54:07.716Z,3.38
2024-02-24T20:56:34.545Z,3.42
2024-02-24T20:59:01.229Z,3.45
2024-02-24T21:01:28.368Z,3.48
2024-02-24T21:03:55.216Z,3.45
2024-02-24T21:06:22.051Z,3.49
2024-02-24T21:08:48.890Z,3.47
2024-02-24T21:11:15.786Z,3.42
2024-02-24T21:13:42.470Z,3.45
2024-02-24T21:16:09.487Z,3.41
2024-02-24T21:18:36.505Z,3.36
2024-02-24T21:21:03.487Z,3.29
2024-02-24T21:23:30.306Z,3.07
2024-02-24T21:25:57.029Z,3.10
2024-02-24T21:28:23.805Z,3.01
2024-02-24T21:30:50.643Z,3.05
2024-02-24T21:33:17.849Z,2.98
2024-02-24T21:35:44.816Z,2.85
2024-02-24T21:41:00.110Z,2.86
2024-02-24T21:43:26.873Z,2.89
2024-02-24T21:45:53.584Z,2.91
2024-02-24T21:48:22.251Z,2.95
2024-02-24T21:50:49.913Z,2.94
2024-02-24T21:53:16.647Z,2.97
2024-02-24T21:55:43.321Z,2.99
2024-02-24T21:58:10.010Z,2.90
2024-02-24T22:00:37.072Z,2.97
2024-02-24T22:03:04.922Z,2.94
2024-02-24T22:05:31.730Z,2.86
2024-02-24T22:07:58.470Z,2.89
2024-02-24T22:10:25.346Z,2.89
2024-02-24T22:12:52.049Z,2.87
2024-02-24T22:15:19.623Z,2.82
2024-02-24T22:17:47.295Z,2.83
2024-02-24T22:20:14.393Z,2.87
2024-02-24T22:22:41.120Z,2.84
2024-02-24T22:25:08.696Z,2.82
2024-02-24T22:27:35.731Z,2.85
2024-02-24T22:30:08.999Z,2.84
2024-02-24T22:32:43.233Z,2.88
2024-02-24T22:35:10.254Z,2.90
2024-02-24T22:37:38.108Z,2.92
2024-02-24T22:40:05.445Z,2.92
2024-02-24T22:42:34.372Z,2.91
2024-02-24T22:45:02.689Z,2.95
2024-02-24T22:47:30.022Z,2.96
2024-02-24T22:49:56.959Z,2.97
2024-02-24T22:52:23.795Z,3.02
2024-02-24T22:54:50.945Z,3.05
2024-02-24T22:57:17.769Z,3.04
2024-02-24T22:59:44.553Z,3.04
2024-02-24T23:02:11.285Z,3.07
2024-02-24T23:04:38.530Z,3.10
2024-02-24T23:07:05.607Z,3.14
2024-02-24T23:09:32.377Z,3.12
2024-02-24T23:11:59.187Z,3.06
2024-02-24T23:14:26.062Z,3.03
2024-02-24T23:16:52.759Z,3.04
2024-02-24T23:19:21.079Z,2.98
2024-02-24T23:21:47.951Z,2.95
2024-02-24T23:24:14.689Z,2.88
2024-02-24T23:26:41.442Z,2.87
2024-02-24T23:29:08.467Z,2.80
2024-02-24T23:31:35.236Z,2.71
2024-02-24T23:34:02.212Z,2.64
2024-02-24T23:36:29.137Z,2.57
2024-02-24T23:38:55.903Z,2.47
2024-02-24T23:41:22.642Z,2.47
2024-02-24T23:43:49.344Z,2.42
2024-02-24T23:46:16.062Z,2.32
2024-02-24T23:48:44.726Z,2.31
2024-02-24T23:51:11.700Z,2.28
2024-02-24T23:53:39.423Z,2.15
2024-02-24T23:56:06.539Z,2.15
2024-02-24T23:58:33.233Z,2.11
